Time,TemperatureF,DewpointF,PressureIn,WindDirection,WindDirectionDegrees,WindSpeedMPH,WindSpeedGustMPH,Humidity,HourlyPrecipIn,Conditions,Clouds,dailyrainin,SolarRadiationWatts/m^2,SoftwareType,DateUTC
2013-03-20 00:02:00,52.0,50.0,-100.00,South,186,12.0,30.0,92,-99.99,,,0.02,0.000000,,2013-03-20 07:02:00,
2013-03-20 00:11:00,52.0,50.0,-100.00,South,186,12.0,30.0,92,-99.99,,,0.02,0.000000,,2013-03-20 07:11:00,
2013-03-20 00:42:00,52.0,50.0,-100.00,South,191,12.0,25.0,91,-99.99,,,0.02,0.000000,,2013-03-20 07:42:00,
2013-03-20 00:52:00,52.0,50.0,-100.00,South,191,12.0,25.0,91,-99.99,,,0.02,0.000000,,2013-03-20 07:52:00,
2013-03-20 01:02:00,52.0,50.0,-100.00,South,191,12.0,25.0,91,-99.99,,,0.02,0.000000,,2013-03-20 08:02:00,
2013-03-20 01:12:00,52.0,50.0,-100.00,South,191,12.0,25.0,91,-99.99,,,0.02,0.000000,,2013-03-20 08:12:00,
2013-03-20 01:42:00,52.0,49.0,-100.00,South,188,14.0,36.0,88,-99.99,,,0.02,0.000000,,2013-03-20 08:42:00,
2013-03-20 01:52:00,52.0,49.0,-100.00,South,188,14.0,36.0,88,-99.99,,,0.02,0.000000,,2013-03-20 08:52:00,
2013-03-20 02:02:00,52.0,49.0,-100.00,South,188,14.0,36.0,88,-99.99,,,0.02,0.000000,,2013-03-20 09:02:00,
2013-03-20 02:11:00,52.0,49.0,-100.00,South,188,14.0,36.0,88,-99.99,,,0.02,0.000000,,2013-03-20 09:11:00,
2013-03-20 02:43:00,53.0,50.0,-100.00,South,191,13.0,31.0,90,-99.99,,,0.02,0.000000,,2013-03-20 09:43:00,
2013-03-20 02:53:00,53.0,50.0,-100.00,South,191,13.0,31.0,90,-99.99,,,0.02,0.000000,,2013-03-20 09:53:00,
2013-03-20 03:03:00,53.0,50.0,-100.00,South,191,13.0,31.0,90,-99.99,,,0.02,0.000000,,2013-03-20 10:03:00,
2013-03-20 03:12:00,53.0,50.0,-100.00,South,191,13.0,31.0,90,-99.99,,,0.02,0.000000,,2013-03-20 10:12:00,
2013-03-20 03:42:00,52.0,50.0,-100.00,SSW,193,16.0,41.0,89,-99.99,,,0.02,0.000000,,2013-03-20 10:42:00,
2013-03-20 03:53:00,52.0,50.0,-100.00,SSW,193,16.0,41.0,89,-99.99,,,0.02,0.000000,,2013-03-20 10:53:00,
2013-03-20 04:02:00,52.0,50.0,-100.00,SSW,193,16.0,41.0,89,-99.99,,,0.02,0.000000,,2013-03-20 11:02:00,
2013-03-20 04:12:00,52.0,50.0,-100.00,SSW,193,16.0,41.0,89,-99.99,,,0.02,0.000000,,2013-03-20 11:12:00,
2013-03-20 04:42:00,52.0,50.0,-100.00,SSW,193,13.0,35.0,92,-99.99,,,0.02,0.000000,,2013-03-20 11:42:00,
2013-03-20 04:52:00,52.0,50.0,-100.00,SSW,193,13.0,35.0,92,-99.99,,,0.02,0.000000,,2013-03-20 11:52:00,
2013-03-20 05:02:00,52.0,50.0,-100.00,SSW,193,13.0,35.0,92,-99.99,,,0.02,0.000000,,2013-03-20 12:02:00,
2013-03-20 05:11:00,52.0,50.0,-100.00,SSW,193,13.0,35.0,92,-99.99,,,0.02,0.000000,,2013-03-20 12:11:00,
2013-03-20 05:42:00,51.0,50.0,-100.00,SSW,193,12.0,30.0,95,-99.99,,,0.02,0.000000,,2013-03-20 12:42:00,
2013-03-20 05:52:00,51.0,50.0,-100.00,SSW,193,12.0,30.0,95,-99.99,,,0.02,0.000000,,2013-03-20 12:52:00,
2013-03-20 06:02:00,51.0,50.0,-100.00,SSW,193,12.0,30.0,95,-99.99,,,0.02,0.000000,,2013-03-20 13:02:00,
2013-03-20 06:12:00,51.0,50.0,-100.00,SSW,193,12.0,30.0,95,-99.99,,,0.02,0.000000,,2013-03-20 13:12:00,
2013-03-20 06:42:00,51.0,50.0,-100.00,SSW,199,11.0,30.0,95,-99.99,,,0.03,0.000000,,2013-03-20 13:42:00,
2013-03-20 06:53:00,51.0,50.0,-100.00,SSW,199,11.0,30.0,95,-99.99,,,0.03,0.000000,,2013-03-20 13:53:00,
2013-03-20 07:02:00,51.0,50.0,-100.00,SSW,199,11.0,30.0,95,-99.99,,,0.03,0.000000,,2013-03-20 14:02:00,
2013-03-20 07:12:00,51.0,50.0,-100.00,SSW,199,11.0,30.0,95,-99.99,,,0.03,0.000000,,2013-03-20 14:12:00,
2013-03-20 07:42:00,50.0,50.0,-100.00,SSW,198,10.0,29.0,96,-99.99,,,0.03,0.120000,,2013-03-20 14:42:00,
2013-03-20 07:52:00,50.0,50.0,-100.00,SSW,198,10.0,29.0,96,-99.99,,,0.03,0.120000,,2013-03-20 14:52:00,
2013-03-20 08:02:00,50.0,50.0,-100.00,SSW,198,10.0,29.0,96,-99.99,,,0.03,0.120000,,2013-03-20 15:02:00,
2013-03-20 08:12:00,50.0,50.0,-100.00,SSW,198,10.0,29.0,96,-99.99,,,0.03,0.120000,,2013-03-20 15:12:00,
2013-03-20 08:43:00,48.0,47.0,-100.00,SW,222,4.0,12.0,97,-99.99,,,0.03,8.020000,,2013-03-20 15:43:00,
2013-03-20 08:53:00,48.0,47.0,-100.00,SW,222,4.0,12.0,97,-99.99,,,0.03,8.020000,,2013-03-20 15:53:00,
2013-03-20 09:02:00,48.0,47.0,-100.00,SW,222,4.0,12.0,97,-99.99,,,0.03,8.020000,,2013-03-20 16:02:00,
2013-03-20 09:12:00,48.0,47.0,-100.00,SW,222,4.0,12.0,97,-99.99,,,0.03,8.020000,,2013-03-20 16:12:00,
2013-03-20 09:42:00,47.0,46.0,-100.00,West,264,3.0,11.0,97,-99.99,,,0.03,50.209999,,2013-03-20 16:42:00,
2013-03-20 09:53:00,47.0,46.0,-100.00,West,264,3.0,11.0,97,-99.99,,,0.03,50.209999,,2013-03-20 16:53:00,
2013-03-20 10:03:00,47.0,46.0,-100.00,West,264,3.0,11.0,97,-99.99,,,0.03,50.209999,,2013-03-20 17:03:00,
2013-03-20 10:11:00,47.0,46.0,-100.00,West,264,3.0,11.0,97,-99.99,,,0.03,50.209999,,2013-03-20 17:11:00,
2013-03-20 10:42:00,48.0,46.0,-100.00,West,263,4.0,10.0,93,-99.99,,,0.03,164.449997,,2013-03-20 17:42:00,
2013-03-20 10:53:00,48.0,46.0,-100.00,West,263,4.0,10.0,93,-99.99,,,0.03,164.449997,,2013-03-20 17:53:00,
2013-03-20 11:02:00,48.0,46.0,-100.00,West,263,4.0,10.0,93,-99.99,,,0.03,164.449997,,2013-03-20 18:02:00,
2013-03-20 11:12:00,48.0,46.0,-100.00,West,263,4.0,10.0,93,-99.99,,,0.03,164.449997,,2013-03-20 18:12:00,
2013-03-20 11:42:00,49.0,47.0,-100.00,WSW,257,4.0,14.0,91,-99.99,,,0.03,519.969971,,2013-03-20 18:42:00,
2013-03-20 11:52:00,49.0,47.0,-100.00,WSW,257,4.0,14.0,91,-99.99,,,0.03,519.969971,,2013-03-20 18:52:00,
2013-03-20 12:02:00,49.0,47.0,-100.00,WSW,257,4.0,14.0,91,-99.99,,,0.03,519.969971,,2013-03-20 19:02:00,
2013-03-20 12:12:00,49.0,47.0,-100.00,WSW,257,4.0,14.0,91,-99.99,,,0.03,519.969971,,2013-03-20 19:12:00,
2013-03-20 12:42:00,49.0,44.0,-100.00,West,265,5.0,14.0,81,-99.99,,,0.03,251.270004,,2013-03-20 19:42:00,
2013-03-20 12:53:00,49.0,44.0,-100.00,West,265,5.0,14.0,81,-99.99,,,0.03,251.270004,,2013-03-20 19:53:00,
2013-03-20 13:02:00,49.0,44.0,-100.00,West,265,5.0,14.0,81,-99.99,,,0.03,251.270004,,2013-03-20 20:02:00,
2013-03-20 13:12:00,49.0,44.0,-100.00,West,265,5.0,14.0,81,-99.99,,,0.03,251.270004,,2013-03-20 20:12:00,
2013-03-20 13:32:00,50.0,44.0,-100.00,West,274,5.0,13.0,80,-99.99,,,0.03,572.729980,,2013-03-20 20:32:00,
2013-03-20 13:42:00,50.0,44.0,-100.00,West,274,5.0,13.0,80,-99.99,,,0.03,572.729980,,2013-03-20 20:42:00,
2013-03-20 13:53:00,50.0,44.0,-100.00,West,274,5.0,13.0,80,-99.99,,,0.03,572.729980,,2013-03-20 20:53:00,
2013-03-20 14:02:00,50.0,44.0,-100.00,West,274,5.0,13.0,80,-99.99,,,0.03,572.729980,,2013-03-20 21:02:00,
2013-03-20 14:12:00,50.0,44.0,-100.00,West,274,5.0,13.0,80,-99.99,,,0.03,572.729980,,2013-03-20 21:12:00,
2013-03-20 14:42:00,52.0,43.0,-100.00,West,266,5.0,16.0,73,-99.99,,,0.03,779.840027,,2013-03-20 21:42:00,
2013-03-20 14:52:00,52.0,43.0,-100.00,West,266,5.0,16.0,73,-99.99,,,0.03,779.840027,,2013-03-20 21:52:00,
2013-03-20 15:03:00,52.0,43.0,-100.00,West,266,5.0,16.0,73,-99.99,,,0.03,779.840027,,2013-03-20 22:03:00,
2013-03-20 15:12:00,52.0,43.0,-100.00,West,266,5.0,16.0,73,-99.99,,,0.03,779.840027,,2013-03-20 22:12:00,
2013-03-20 15:42:00,51.0,42.0,-100.00,WNW,282,5.0,14.0,69,-99.99,,,0.03,665.130005,,2013-03-20 22:42:00,
2013-03-20 15:52:00,51.0,42.0,-100.00,WNW,282,5.0,14.0,69,-99.99,,,0.03,665.130005,,2013-03-20 22:52:00,
2013-03-20 16:02:00,51.0,42.0,-100.00,WNW,282,5.0,14.0,69,-99.99,,,0.03,665.130005,,2013-03-20 23:02:00,
2013-03-20 16:12:00,51.0,42.0,-100.00,WNW,282,5.0,14.0,69,-99.99,,,0.03,665.130005,,2013-03-20 23:12:00,
2013-03-20 16:42:00,49.0,41.0,-100.00,West,274,5.0,15.0,73,-99.99,,,0.03,166.190002,,2013-03-20 23:42:00,
2013-03-20 16:52:00,49.0,41.0,-100.00,West,274,5.0,15.0,73,-99.99,,,0.03,166.190002,,2013-03-20 23:52:00,
2013-03-20 17:02:00,49.0,41.0,-100.00,West,274,5.0,15.0,73,-99.99,,,0.03,166.190002,,2013-03-21 00:02:00,
2013-03-20 17:12:00,49.0,41.0,-100.00,West,274,5.0,15.0,73,-99.99,,,0.03,166.190002,,2013-03-21 00:12:00,
2013-03-20 17:42:00,45.0,40.0,-100.00,WNW,302,4.0,15.0,83,-99.99,,,0.03,120.639999,,2013-03-21 00:42:00,
2013-03-20 17:52:00,45.0,40.0,-100.00,WNW,302,4.0,15.0,83,-99.99,,,0.03,120.639999,,2013-03-21 00:52:00,
2013-03-20 18:02:00,45.0,40.0,-100.00,WNW,302,4.0,15.0,83,-99.99,,,0.03,120.639999,,2013-03-21 01:02:00,
2013-03-20 18:11:00,45.0,40.0,-100.00,WNW,302,4.0,15.0,83,-99.99,,,0.03,120.639999,,2013-03-21 01:11:00,
2013-03-20 18:42:00,48.0,42.0,-100.00,WSW,240,2.0,6.0,79,-99.99,,,0.04,184.669998,,2013-03-21 01:42:00,
2013-03-20 18:52:00,48.0,42.0,-100.00,WSW,240,2.0,6.0,79,-99.99,,,0.04,184.669998,,2013-03-21 01:52:00,
2013-03-20 19:02:00,48.0,42.0,-100.00,WSW,240,2.0,6.0,79,-99.99,,,0.04,184.669998,,2013-03-21 02:02:00,
2013-03-20 19:12:00,48.0,42.0,-100.00,WSW,240,2.0,6.0,79,-99.99,,,0.04,184.669998,,2013-03-21 02:12:00,
2013-03-20 20:02:00,46.0,38.0,-100.00,WNW,299,3.0,11.0,73,-99.99,,,0.03,36.610001,,2013-03-21 03:02:00,
2013-03-20 20:12:00,46.0,38.0,-100.00,WNW,299,3.0,11.0,73,-99.99,,,0.03,36.610001,,2013-03-21 03:12:00,
2013-03-20 20:43:00,45.0,38.0,-100.00,WNW,297,3.0,10.0,76,-99.99,,,0.03,0.000000,,2013-03-21 03:43:00,
2013-03-20 20:53:00,45.0,38.0,-100.00,WNW,297,3.0,10.0,76,-99.99,,,0.03,0.000000,,2013-03-21 03:53:00,
2013-03-20 21:02:00,45.0,38.0,-100.00,WNW,297,3.0,10.0,76,-99.99,,,0.03,0.000000,,2013-03-21 04:02:00,
2013-03-20 21:12:00,45.0,38.0,-100.00,WNW,297,3.0,10.0,76,-99.99,,,0.03,0.000000,,2013-03-21 04:12:00,
2013-03-20 21:43:00,45.0,37.0,-100.00,WNW,299,2.0,5.0,73,-99.99,,,0.03,0.000000,,2013-03-21 04:43:00,
2013-03-20 21:53:00,45.0,37.0,-100.00,WNW,299,2.0,5.0,73,-99.99,,,0.03,0.000000,,2013-03-21 04:53:00,
2013-03-20 22:02:00,45.0,37.0,-100.00,WNW,299,2.0,5.0,73,-99.99,,,0.03,0.000000,,2013-03-21 05:02:00,
2013-03-20 22:12:00,45.0,37.0,-100.00,WNW,299,2.0,5.0,73,-99.99,,,0.03,0.000000,,2013-03-21 05:12:00,
2013-03-20 22:43:00,46.0,37.0,-100.00,NW,305,3.0,14.0,72,-99.99,,,0.02,0.000000,,2013-03-21 05:43:00,
2013-03-20 22:52:00,46.0,37.0,-100.00,NW,305,3.0,14.0,72,-99.99,,,0.02,0.000000,,2013-03-21 05:52:00,
2013-03-20 23:02:00,46.0,37.0,-100.00,NW,305,3.0,14.0,72,-99.99,,,0.02,0.000000,,2013-03-21 06:02:00,
2013-03-20 23:12:00,46.0,37.0,-100.00,NW,305,3.0,14.0,72,-99.99,,,0.02,0.000000,,2013-03-21 06:12:00,
2013-03-20 23:42:00,43.0,36.0,-100.00,NNW,339,1.0,4.0,73,-99.99,,,0.02,0.000000,,2013-03-21 06:42:00,
2013-03-20 23:52:00,43.0,36.0,-100.00,NNW,339,1.0,4.0,73,-99.99,,,0.02,0.000000,,2013-03-21 06:52:00,